sensor_id;sensor_type;location;lat;lon;timestamp;temperature;humidity
69715;HTU21D;56981;53.532;49.398;2024-02-21T00:01:43;-16.61;75.31
69715;HTU21D;56981;53.532;49.398;2024-02-21T00:04:09;-16.61;75.47
69715;HTU21D;56981;53.532;49.398;2024-02-21T00:06:35;-16.67;76.55
69715;HTU21D;56981;53.532;49.398;2024-02-21T00:09:01;-16.77;76.81
69715;HTU21D;56981;53.532;49.398;2024-02-21T00:11:28;-16.78;77.86
69715;HTU21D;56981;53.532;49.398;2024-02-21T00:13:55;-16.77;78.43
69715;HTU21D;56981;53.532;49.398;2024-02-21T00:16:21;-16.71;79.11
69715;HTU21D;56981;53.532;49.398;2024-02-21T00:18:48;-16.67;79.04
69715;HTU21D;56981;53.532;49.398;2024-02-21T00:21:14;-16.58;78.24
69715;HTU21D;56981;53.532;49.398;2024-02-21T00:23:44;-16.56;77.05
69715;HTU21D;56981;53.532;49.398;2024-02-21T00:26:15;-16.66;73.81
69715;HTU21D;56981;53.532;49.398;2024-02-21T00:28:41;-16.68;73.79
69715;HTU21D;56981;53.532;49.398;2024-02-21T00:31:08;-16.83;73.25
69715;HTU21D;56981;53.532;49.398;2024-02-21T00:33:35;-16.77;74.08
69715;HTU21D;56981;53.532;49.398;2024-02-21T00:36:01;-16.76;74.51
69715;HTU21D;56981;53.532;49.398;2024-02-21T00:38:27;-16.77;74.47
69715;HTU21D;56981;53.532;49.398;2024-02-21T00:40:54;-16.83;74.64
69715;HTU21D;56981;53.532;49.398;2024-02-21T00:43:21;-16.82;73.84
69715;HTU21D;56981;53.532;49.398;2024-02-21T00:45:50;-17.03;71.70
69715;HTU21D;56981;53.532;49.398;2024-02-21T00:48:16;-17.07;73.03
69715;HTU21D;56981;53.532;49.398;2024-02-21T00:50:43;-17.08;72.86
69715;HTU21D;56981;53.532;49.398;2024-02-21T00:53:10;-17.08;71.74
69715;HTU21D;56981;53.532;49.398;2024-02-21T00:55:36;-17.06;72.87
69715;HTU21D;56981;53.532;49.398;2024-02-21T00:58:03;-16.97;73.40
69715;HTU21D;56981;53.532;49.398;2024-02-21T01:00:29;-17.02;73.00
69715;HTU21D;56981;53.532;49.398;2024-02-21T01:02:56;-16.92;74.34
69715;HTU21D;56981;53.532;49.398;2024-02-21T01:05:22;-16.88;76.31
69715;HTU21D;56981;53.532;49.398;2024-02-21T01:07:48;-16.83;78.05
69715;HTU21D;56981;53.532;49.398;2024-02-21T01:10:15;-16.82;78.56
69715;HTU21D;56981;53.532;49.398;2024-02-21T01:12:43;-16.81;79.01
69715;HTU21D;56981;53.532;49.398;2024-02-21T01:15:09;-16.83;77.62
69715;HTU21D;56981;53.532;49.398;2024-02-21T01:17:36;-16.83;78.19
69715;HTU21D;56981;53.532;49.398;2024-02-21T01:20:03;-16.81;78.91
69715;HTU21D;56981;53.532;49.398;2024-02-21T01:22:31;-16.77;78.68
69715;HTU21D;56981;53.532;49.398;2024-02-21T01:24:57;-16.69;79.34
69715;HTU21D;56981;53.532;49.398;2024-02-21T01:27:24;-16.70;75.98
69715;HTU21D;56981;53.532;49.398;2024-02-21T01:29:50;-16.64;75.92
69715;HTU21D;56981;53.532;49.398;2024-02-21T01:32:17;-16.61;75.28
69715;HTU21D;56981;53.532;49.398;2024-02-21T01:34:43;-16.64;75.85
69715;HTU21D;56981;53.532;49.398;2024-02-21T01:37:09;-16.65;75.48
69715;HTU21D;56981;53.532;49.398;2024-02-21T01:39:36;-16.70;76.73
69715;HTU21D;56981;53.532;49.398;2024-02-21T01:42:03;-16.77;76.72
69715;HTU21D;56981;53.532;49.398;2024-02-21T01:44:30;-16.79;74.24
69715;HTU21D;56981;53.532;49.398;2024-02-21T01:46:56;-16.77;74.05
69715;HTU21D;56981;53.532;49.398;2024-02-21T01:49:23;-16.74;75.41
69715;HTU21D;56981;53.532;49.398;2024-02-21T01:51:50;-16.79;76.48
69715;HTU21D;56981;53.532;49.398;2024-02-21T01:54:17;-16.86;77.06
69715;HTU21D;56981;53.532;49.398;2024-02-21T01:56:44;-16.98;77.66
69715;HTU21D;56981;53.532;49.398;2024-02-21T01:59:12;-17.13;76.92
69715;HTU21D;56981;53.532;49.398;2024-02-21T02:01:39;-17.18;78.02
69715;HTU21D;56981;53.532;49.398;2024-02-21T02:04:07;-17.17;78.92
69715;HTU21D;56981;53.532;49.398;2024-02-21T02:06:33;-17.15;79.69
69715;HTU21D;56981;53.532;49.398;2024-02-21T02:09:00;-17.11;79.62
69715;HTU21D;56981;53.532;49.398;2024-02-21T02:11:27;-17.07;80.04
69715;HTU21D;56981;53.532;49.398;2024-02-21T02:13:53;-17.09;79.40
69715;HTU21D;56981;53.532;49.398;2024-02-21T02:16:20;-17.12;79.08
69715;HTU21D;56981;53.532;49.398;2024-02-21T02:18:46;-17.16;78.74
69715;HTU21D;56981;53.532;49.398;2024-02-21T02:23:53;-17.21;79.14
69715;HTU21D;56981;53.532;49.398;2024-02-21T02:26:20;-17.23;79.01
69715;HTU21D;56981;53.532;49.398;2024-02-21T02:28:46;-17.20;79.33
69715;HTU21D;56981;53.532;49.398;2024-02-21T02:31:13;-17.17;79.49
69715;HTU21D;56981;53.532;49.398;2024-02-21T02:33:39;-17.12;79.62
69715;HTU21D;56981;53.532;49.398;2024-02-21T02:36:05;-17.16;78.70
69715;HTU21D;56981;53.532;49.398;2024-02-21T02:38:32;-17.14;78.78
69715;HTU21D;56981;53.532;49.398;2024-02-21T02:40:58;-17.16;78.46
69715;HTU21D;56981;53.532;49.398;2024-02-21T02:43:24;-17.15;78.05
69715;HTU21D;56981;53.532;49.398;2024-02-21T02:45:51;-17.16;78.34
69715;HTU21D;56981;53.532;49.398;2024-02-21T02:48:17;-17.24;78.27
69715;HTU21D;56981;53.532;49.398;2024-02-21T02:50:46;-17.22;78.66
69715;HTU21D;56981;53.532;49.398;2024-02-21T02:53:12;-17.16;79.10
69715;HTU21D;56981;53.532;49.398;2024-02-21T02:55:39;-17.14;78.51
69715;HTU21D;56981;53.532;49.398;2024-02-21T02:58:05;-17.16;78.48
69715;HTU21D;56981;53.532;49.398;2024-02-21T03:00:32;-17.18;78.66
69715;HTU21D;56981;53.532;49.398;2024-02-21T03:03:02;-17.17;79.01
69715;HTU21D;56981;53.532;49.398;2024-02-21T03:05:31;-17.13;79.19
69715;HTU21D;56981;53.532;49.398;2024-02-21T03:07:58;-17.13;78.88
69715;HTU21D;56981;53.532;49.398;2024-02-21T03:10:25;-17.13;79.24
69715;HTU21D;56981;53.532;49.398;2024-02-21T03:12:51;-16.93;81.04
69715;HTU21D;56981;53.532;49.398;2024-02-21T03:15:19;-16.78;80.50
69715;HTU21D;56981;53.532;49.398;2024-02-21T03:17:46;-16.84;77.41
69715;HTU21D;56981;53.532;49.398;2024-02-21T03:20:12;-16.98;78.08
69715;HTU21D;56981;53.532;49.398;2024-02-21T03:22:40;-17.01;78.98
69715;HTU21D;56981;53.532;49.398;2024-02-21T03:25:08;-17.12;78.02
69715;HTU21D;56981;53.532;49.398;2024-02-21T03:27:34;-17.13;78.52
69715;HTU21D;56981;53.532;49.398;2024-02-21T03:30:01;-17.10;79.42
69715;HTU21D;56981;53.532;49.398;2024-02-21T03:32:27;-17.01;78.98
69715;HTU21D;56981;53.532;49.398;2024-02-21T03:34:57;-16.94;79.20
69715;HTU21D;56981;53.532;49.398;2024-02-21T03:37:23;-16.84;79.27
69715;HTU21D;56981;53.532;49.398;2024-02-21T03:39:49;-16.73;79.14
69715;HTU21D;56981;53.532;49.398;2024-02-21T03:42:15;-16.66;80.04
69715;HTU21D;56981;53.532;49.398;2024-02-21T03:44:41;-16.58;80.01
69715;HTU21D;56981;53.532;49.398;2024-02-21T03:47:07;-16.56;79.83
69715;HTU21D;56981;53.532;49.398;2024-02-21T03:49:36;-16.52;79.56
69715;HTU21D;56981;53.532;49.398;2024-02-21T03:52:03;-16.48;78.96
69715;HTU21D;56981;53.532;49.398;2024-02-21T03:54:30;-16.44;78.63
69715;HTU21D;56981;53.532;49.398;2024-02-21T03:56:56;-16.44;77.93
69715;HTU21D;56981;53.532;49.398;2024-02-21T03:59:22;-16.44;77.92
69715;HTU21D;56981;53.532;49.398;2024-02-21T04:01:52;-16.44;77.20
69715;HTU21D;56981;53.532;49.398;2024-02-21T04:04:19;-16.44;77.16
69715;HTU21D;56981;53.532;49.398;2024-02-21T04:06:48;-16.42;76.33
69715;HTU21D;56981;53.532;49.398;2024-02-21T04:09:14;-16.38;76.38
69715;HTU21D;56981;53.532;49.398;2024-02-21T04:11:41;-16.29;76.41
69715;HTU21D;56981;53.532;49.398;2024-02-21T04:14:07;-16.11;76.53
69715;HTU21D;56981;53.532;49.398;2024-02-21T04:16:34;-15.89;74.57
69715;HTU21D;56981;53.532;49.398;2024-02-21T04:19:01;-15.65;73.99
69715;HTU21D;56981;53.532;49.398;2024-02-21T04:21:28;-15.66;72.82
69715;HTU21D;56981;53.532;49.398;2024-02-21T04:23:54;-15.37;73.18
69715;HTU21D;56981;53.532;49.398;2024-02-21T04:26:21;-14.96;71.48
69715;HTU21D;56981;53.532;49.398;2024-02-21T04:28:47;-14.66;69.79
69715;HTU21D;56981;53.532;49.398;2024-02-21T04:31:14;-14.45;68.86
69715;HTU21D;56981;53.532;49.398;2024-02-21T04:33:40;-14.44;68.40
69715;HTU21D;56981;53.532;49.398;2024-02-21T04:36:06;-14.40;68.27
69715;HTU21D;56981;53.532;49.398;2024-02-21T04:38:33;-14.49;68.68
69715;HTU21D;56981;53.532;49.398;2024-02-21T04:40:59;-14.41;69.87
69715;HTU21D;56981;53.532;49.398;2024-02-21T04:43:26;-13.69;67.04
69715;HTU21D;56981;53.532;49.398;2024-02-21T04:45:52;-12.91;65.14
69715;HTU21D;56981;53.532;49.398;2024-02-21T04:48:19;-11.78;61.20
69715;HTU21D;56981;53.532;49.398;2024-02-21T04:50:46;-10.99;58.16
69715;HTU21D;56981;53.532;49.398;2024-02-21T04:53:13;-10.31;55.58
69715;HTU21D;56981;53.532;49.398;2024-02-21T04:55:42;-9.64;53.79
69715;HTU21D;56981;53.532;49.398;2024-02-21T04:58:09;-8.92;51.95
69715;HTU21D;56981;53.532;49.398;2024-02-21T05:00:35;-8.45;50.18
69715;HTU21D;56981;53.532;49.398;2024-02-21T05:03:02;-7.72;48.85
69715;HTU21D;56981;53.532;49.398;2024-02-21T05:05:28;-7.45;48.53
69715;HTU21D;56981;53.532;49.398;2024-02-21T05:07:55;-6.93;47.11
69715;HTU21D;56981;53.532;49.398;2024-02-21T05:10:21;-6.60;45.83
69715;HTU21D;56981;53.532;49.398;2024-02-21T05:12:48;-5.74;44.96
69715;HTU21D;56981;53.532;49.398;2024-02-21T05:15:14;-5.33;43.28
69715;HTU21D;56981;53.532;49.398;2024-02-21T05:17:40;-4.44;41.95
69715;HTU21D;56981;53.532;49.398;2024-02-21T05:20:08;-3.83;40.70
69715;HTU21D;56981;53.532;49.398;2024-02-21T05:22:35;-3.25;39.91
69715;HTU21D;56981;53.532;49.398;2024-02-21T05:25:01;-2.84;38.65
69715;HTU21D;56981;53.532;49.398;2024-02-21T05:27:28;-2.43;37.98
69715;HTU21D;56981;53.532;49.398;2024-02-21T05:29:54;-2.30;37.26
69715;HTU21D;56981;53.532;49.398;2024-02-21T05:32:20;-2.14;36.82
69715;HTU21D;56981;53.532;49.398;2024-02-21T05:34:50;-2.13;36.99
69715;HTU21D;56981;53.532;49.398;2024-02-21T05:37:17;-2.24;37.46
69715;HTU21D;56981;53.532;49.398;2024-02-21T05:39:44;-1.78;36.81
69715;HTU21D;56981;53.532;49.398;2024-02-21T05:42:10;-1.15;35.61
69715;HTU21D;56981;53.532;49.398;2024-02-21T05:44:36;-1.46;36.65
69715;HTU21D;56981;53.532;49.398;2024-02-21T05:47:04;-1.27;36.73
69715;HTU21D;56981;53.532;49.398;2024-02-21T05:49:36;-1.44;36.66
69715;HTU21D;56981;53.532;49.398;2024-02-21T05:52:03;-1.76;37.79
69715;HTU21D;56981;53.532;49.398;2024-02-21T05:54:32;-1.73;38.44
69715;HTU21D;56981;53.532;49.398;2024-02-21T05:56:59;-1.75;38.60
69715;HTU21D;56981;53.532;49.398;2024-02-21T05:59:25;-1.61;37.60
69715;HTU21D;56981;53.532;49.398;2024-02-21T06:01:56;-1.78;39.03
69715;HTU21D;56981;53.532;49.398;2024-02-21T06:04:23;-1.35;38.75
69715;HTU21D;56981;53.532;49.398;2024-02-21T06:06:51;-1.03;38.43
69715;HTU21D;56981;53.532;49.398;2024-02-21T06:09:17;-1.20;38.11
69715;HTU21D;56981;53.532;49.398;2024-02-21T06:11:44;-1.29;39.23
69715;HTU21D;56981;53.532;49.398;2024-02-21T06:14:12;-1.38;39.42
69715;HTU21D;56981;53.532;49.398;2024-02-21T06:16:38;-0.76;38.20
69715;HTU21D;56981;53.532;49.398;2024-02-21T06:19:05;-0.58;38.78
69715;HTU21D;56981;53.532;49.398;2024-02-21T06:21:34;-0.12;37.38
69715;HTU21D;56981;53.532;49.398;2024-02-21T06:24:00;-0.41;38.43
69715;HTU21D;56981;53.532;49.398;2024-02-21T06:26:27;-0.91;39.79
69715;HTU21D;56981;53.532;49.398;2024-02-21T06:28:53;-0.74;39.83
69715;HTU21D;56981;53.532;49.398;2024-02-21T06:31:20;-0.35;38.71
69715;HTU21D;56981;53.532;49.398;2024-02-21T06:33:46;-0.12;38.80
69715;HTU21D;56981;53.532;49.398;2024-02-21T06:36:13;0.10;37.75
69715;HTU21D;56981;53.532;49.398;2024-02-21T06:38:39;0.13;38.51
69715;HTU21D;56981;53.532;49.398;2024-02-21T06:41:06;0.62;37.72
69715;HTU21D;56981;53.532;49.398;2024-02-21T06:43:33;1.08;36.24
69715;HTU21D;56981;53.532;49.398;2024-02-21T06:45:59;1.62;35.75
69715;HTU21D;56981;53.532;49.398;2024-02-21T06:48:26;1.83;35.00
69715;HTU21D;56981;53.532;49.398;2024-02-21T06:50:52;1.54;35.89
69715;HTU21D;56981;53.532;49.398;2024-02-21T06:53:19;1.54;35.91
69715;HTU21D;56981;53.532;49.398;2024-02-21T06:55:45;0.73;37.49
69715;HTU21D;56981;53.532;49.398;2024-02-21T06:58:12;0.61;37.80
69715;HTU21D;56981;53.532;49.398;2024-02-21T07:00:39;0.25;39.15
69715;HTU21D;56981;53.532;49.398;2024-02-21T07:03:06;0.14;39.20
69715;HTU21D;56981;53.532;49.398;2024-02-21T07:05:32;0.18;39.39
69715;HTU21D;56981;53.532;49.398;2024-02-21T07:07:59;-0.03;39.31
69715;HTU21D;56981;53.532;49.398;2024-02-21T07:10:25;-0.03;39.30
69715;HTU21D;56981;53.532;49.398;2024-02-21T07:12:53;-0.09;39.29
69715;HTU21D;56981;53.532;49.398;2024-02-21T07:15:20;-0.35;40.79
69715;HTU21D;56981;53.532;49.398;2024-02-21T07:17:47;-0.67;41.10
69715;HTU21D;56981;53.532;49.398;2024-02-21T07:20:13;-1.23;42.33
69715;HTU21D;56981;53.532;49.398;2024-02-21T07:22:40;-1.33;42.96
69715;HTU21D;56981;53.532;49.398;2024-02-21T07:25:07;-1.14;43.54
69715;HTU21D;56981;53.532;49.398;2024-02-21T07:27:33;-1.18;42.36
69715;HTU21D;56981;53.532;49.398;2024-02-21T07:30:00;-1.57;42.77
69715;HTU21D;56981;53.532;49.398;2024-02-21T07:32:26;-1.68;43.33
69715;HTU21D;56981;53.532;49.398;2024-02-21T07:34:53;-1.88;43.50
69715;HTU21D;56981;53.532;49.398;2024-02-21T07:37:19;-2.27;44.61
69715;HTU21D;56981;53.532;49.398;2024-02-21T07:39:46;-2.18;45.65
69715;HTU21D;56981;53.532;49.398;2024-02-21T07:42:12;-2.10;44.61
69715;HTU21D;56981;53.532;49.398;2024-02-21T07:44:38;-2.39;45.50
69715;HTU21D;56981;53.532;49.398;2024-02-21T07:47:05;-2.58;46.07
69715;HTU21D;56981;53.532;49.398;2024-02-21T07:49:33;-2.59;46.38
69715;HTU21D;56981;53.532;49.398;2024-02-21T07:52:00;-2.86;46.29
69715;HTU21D;56981;53.532;49.398;2024-02-21T07:54:27;-2.90;46.91
69715;HTU21D;56981;53.532;49.398;2024-02-21T07:56:53;-2.48;46.54
69715;HTU21D;56981;53.532;49.398;2024-02-21T07:59:20;-2.74;45.39
69715;HTU21D;56981;53.532;49.398;2024-02-21T08:01:46;-2.71;47.16
69715;HTU21D;56981;53.532;49.398;2024-02-21T08:04:12;-2.59;46.55
69715;HTU21D;56981;53.532;49.398;2024-02-21T08:06:39;-2.58;45.41
69715;HTU21D;56981;53.532;49.398;2024-02-21T08:09:05;-2.41;45.06
69715;HTU21D;56981;53.532;49.398;2024-02-21T08:11:32;-2.79;45.33
69715;HTU21D;56981;53.532;49.398;2024-02-21T08:13:58;-3.45;47.04
69715;HTU21D;56981;53.532;49.398;2024-02-21T08:16:26;-3.28;46.92
69715;HTU21D;56981;53.532;49.398;2024-02-21T08:18:53;-3.49;47.99
69715;HTU21D;56981;53.532;49.398;2024-02-21T08:21:19;-3.25;46.76
69715;HTU21D;56981;53.532;49.398;2024-02-21T08:23:45;-3.28;46.92
69715;HTU21D;56981;53.532;49.398;2024-02-21T08:26:12;-3.34;47.18
69715;HTU21D;56981;53.532;49.398;2024-02-21T08:28:38;-3.21;47.61
69715;HTU21D;56981;53.532;49.398;2024-02-21T08:31:04;-2.88;46.81
69715;HTU21D;56981;53.532;49.398;2024-02-21T08:33:34;-2.67;45.97
69715;HTU21D;56981;53.532;49.398;2024-02-21T08:36:00;-2.37;45.59
69715;HTU21D;56981;53.532;49.398;2024-02-21T08:38:27;-2.46;44.96
69715;HTU21D;56981;53.532;49.398;2024-02-21T08:40:54;-2.43;45.26
69715;HTU21D;56981;53.532;49.398;2024-02-21T08:43:20;-2.53;45.48
69715;HTU21D;56981;53.532;49.398;2024-02-21T08:45:47;-2.57;45.72
69715;HTU21D;56981;53.532;49.398;2024-02-21T08:48:13;-2.49;45.17
69715;HTU21D;56981;53.532;49.398;2024-02-21T08:50:41;-2.84;46.09
69715;HTU21D;56981;53.532;49.398;2024-02-21T08:53:07;-2.91;46.45
69715;HTU21D;56981;53.532;49.398;2024-02-21T08:55:34;-3.38;46.24
69715;HTU21D;56981;53.532;49.398;2024-02-21T08:58:02;-4.01;48.07
69715;HTU21D;56981;53.532;49.398;2024-02-21T09:00:57;-4.39;49.73
69715;HTU21D;56981;53.532;49.398;2024-02-21T09:03:28;-4.46;49.83
69715;HTU21D;56981;53.532;49.398;2024-02-21T09:05:55;-4.49;49.59
69715;HTU21D;56981;53.532;49.398;2024-02-21T09:08:21;-4.27;49.11
69715;HTU21D;56981;53.532;49.398;2024-02-21T09:10:48;-4.87;50.02
69715;HTU21D;56981;53.532;49.398;2024-02-21T09:13:14;-5.09;50.77
69715;HTU21D;56981;53.532;49.398;2024-02-21T09:15:41;-5.28;51.73
69715;HTU21D;56981;53.532;49.398;2024-02-21T09:18:12;-5.12;51.39
69715;HTU21D;56981;53.532;49.398;2024-02-21T09:20:38;-5.31;51.91
69715;HTU21D;56981;53.532;49.398;2024-02-21T09:23:04;-5.38;51.96
69715;HTU21D;56981;53.532;49.398;2024-02-21T09:25:31;-5.94;53.22
69715;HTU21D;56981;53.532;49.398;2024-02-21T09:27:57;-6.18;55.04
69715;HTU21D;56981;53.532;49.398;2024-02-21T09:30:24;-6.34;54.93
69715;HTU21D;56981;53.532;49.398;2024-02-21T09:32:51;-6.61;56.18
69715;HTU21D;56981;53.532;49.398;2024-02-21T09:35:17;-6.85;57.11
69715;HTU21D;56981;53.532;49.398;2024-02-21T09:37:43;-6.61;56.50
69715;HTU21D;56981;53.532;49.398;2024-02-21T09:40:10;-6.61;56.16
69715;HTU21D;56981;53.532;49.398;2024-02-21T09:42:37;-6.49;57.08
69715;HTU21D;56981;53.532;49.398;2024-02-21T09:45:08;-6.72;57.35
69715;HTU21D;56981;53.532;49.398;2024-02-21T09:48:19;-6.65;57.32
69715;HTU21D;56981;53.532;49.398;2024-02-21T09:50:49;-7.15;58.47
69715;HTU21D;56981;53.532;49.398;2024-02-21T09:53:16;-7.15;58.18
69715;HTU21D;56981;53.532;49.398;2024-02-21T09:55:44;-7.24;58.15
69715;HTU21D;56981;53.532;49.398;2024-02-21T09:58:12;-7.24;58.22
69715;HTU21D;56981;53.532;49.398;2024-02-21T10:00:39;-7.39;58.33
69715;HTU21D;56981;53.532;49.398;2024-02-21T10:03:05;-7.53;59.69
69715;HTU21D;56981;53.532;49.398;2024-02-21T10:05:37;-7.65;58.77
69715;HTU21D;56981;53.532;49.398;2024-02-21T10:08:04;-7.94;59.49
69715;HTU21D;56981;53.532;49.398;2024-02-21T10:10:45;-8.01;60.21
69715;HTU21D;56981;53.532;49.398;2024-02-21T10:13:28;-7.83;60.54
69715;HTU21D;56981;53.532;49.398;2024-02-21T10:16:06;-7.95;60.12
69715;HTU21D;56981;53.532;49.398;2024-02-21T10:18:34;-8.01;60.50
69715;HTU21D;56981;53.532;49.398;2024-02-21T10:21:05;-8.05;60.86
69715;HTU21D;56981;53.532;49.398;2024-02-21T10:23:51;-7.92;60.51
69715;HTU21D;56981;53.532;49.398;2024-02-21T10:26:19;-7.92;61.19
69715;HTU21D;56981;53.532;49.398;2024-02-21T10:28:47;-7.82;60.97
69715;HTU21D;56981;53.532;49.398;2024-02-21T10:31:25;-7.92;61.37
69715;HTU21D;56981;53.532;49.398;2024-02-21T10:33:59;-8.16;62.15
69715;HTU21D;56981;53.532;49.398;2024-02-21T10:36:31;-8.29;61.94
69715;HTU21D;56981;53.532;49.398;2024-02-21T10:38:58;-8.26;62.31
69715;HTU21D;56981;53.532;49.398;2024-02-21T10:41:24;-8.30;62.41
69715;HTU21D;56981;53.532;49.398;2024-02-21T10:43:53;-8.39;62.41
69715;HTU21D;56981;53.532;49.398;2024-02-21T10:46:21;-8.38;62.89
69715;HTU21D;56981;53.532;49.398;2024-02-21T10:49:04;-8.53;63.44
69715;HTU21D;56981;53.532;49.398;2024-02-21T10:51:33;-8.63;63.82
69715;HTU21D;56981;53.532;49.398;2024-02-21T10:54:13;-8.79;64.88
69715;HTU21D;56981;53.532;49.398;2024-02-21T10:56:48;-8.71;64.98
69715;HTU21D;56981;53.532;49.398;2024-02-21T10:59:17;-8.58;65.12
69715;HTU21D;56981;53.532;49.398;2024-02-21T11:01:45;-8.62;64.53
69715;HTU21D;56981;53.532;49.398;2024-02-21T11:04:12;-8.64;64.24
69715;HTU21D;56981;53.532;49.398;2024-02-21T11:06:39;-8.57;64.11
69715;HTU21D;56981;53.532;49.398;2024-02-21T11:09:10;-8.55;63.73
69715;HTU21D;56981;53.532;49.398;2024-02-21T11:11:41;-8.33;64.52
69715;HTU21D;56981;53.532;49.398;2024-02-21T11:14:17;-8.20;63.56
69715;HTU21D;56981;53.532;49.398;2024-02-21T11:16:44;-8.31;64.14
69715;HTU21D;56981;53.532;49.398;2024-02-21T11:19:22;-8.42;64.30
69715;HTU21D;56981;53.532;49.398;2024-02-21T11:21:51;-8.60;65.27
69715;HTU21D;56981;53.532;49.398;2024-02-21T11:24:32;-8.77;65.84
69715;HTU21D;56981;53.532;49.398;2024-02-21T11:27:21;-8.89;66.48
69715;HTU21D;56981;53.532;49.398;2024-02-21T11:29:49;-8.94;66.56
69715;HTU21D;56981;53.532;49.398;2024-02-21T11:32:18;-8.97;66.80
69715;HTU21D;56981;53.532;49.398;2024-02-21T11:35:01;-8.88;66.27
69715;HTU21D;56981;53.532;49.398;2024-02-21T11:37:30;-8.90;65.71
69715;HTU21D;56981;53.532;49.398;2024-02-21T11:40:00;-9.01;66.82
69715;HTU21D;56981;53.532;49.398;2024-02-21T11:42:27;-9.02;66.53
69715;HTU21D;56981;53.532;49.398;2024-02-21T11:44:54;-8.98;66.04
69715;HTU21D;56981;53.532;49.398;2024-02-21T11:47:24;-9.03;66.11
69715;HTU21D;56981;53.532;49.398;2024-02-21T11:49:53;-9.09;65.67
69715;HTU21D;56981;53.532;49.398;2024-02-21T11:52:24;-9.14;65.39
69715;HTU21D;56981;53.532;49.398;2024-02-21T11:54:54;-9.13;65.99
69715;HTU21D;56981;53.532;49.398;2024-02-21T11:57:23;-9.20;65.58
69715;HTU21D;56981;53.532;49.398;2024-02-21T11:59:51;-9.24;66.60
69715;HTU21D;56981;53.532;49.398;2024-02-21T12:02:18;-9.07;66.21
69715;HTU21D;56981;53.532;49.398;2024-02-21T12:04:45;-9.03;66.30
69715;HTU21D;56981;53.532;49.398;2024-02-21T12:07:12;-9.02;66.32
69715;HTU21D;56981;53.532;49.398;2024-02-21T12:09:41;-8.93;65.89
69715;HTU21D;56981;53.532;49.398;2024-02-21T12:12:08;-8.98;65.90
69715;HTU21D;56981;53.532;49.398;2024-02-21T12:14:35;-9.07;66.55
69715;HTU21D;56981;53.532;49.398;2024-02-21T12:17:03;-9.04;66.53
69715;HTU21D;56981;53.532;49.398;2024-02-21T12:19:33;-9.05;66.00
69715;HTU21D;56981;53.532;49.398;2024-02-21T12:22:00;-9.15;65.98
69715;HTU21D;56981;53.532;49.398;2024-02-21T12:24:28;-9.36;66.83
69715;HTU21D;56981;53.532;49.398;2024-02-21T12:26:56;-9.39;67.43
69715;HTU21D;56981;53.532;49.398;2024-02-21T12:29:23;-9.44;67.38
69715;HTU21D;56981;53.532;49.398;2024-02-21T12:31:53;-9.40;67.28
69715;HTU21D;56981;53.532;49.398;2024-02-21T12:34:20;-9.46;67.36
69715;HTU21D;56981;53.532;49.398;2024-02-21T12:36:48;-9.55;67.68
69715;HTU21D;56981;53.532;49.398;2024-02-21T12:39:14;-9.59;68.14
69715;HTU21D;56981;53.532;49.398;2024-02-21T12:41:43;-9.66;68.26
69715;HTU21D;56981;53.532;49.398;2024-02-21T12:44:10;-9.68;68.36
69715;HTU21D;56981;53.532;49.398;2024-02-21T12:46:40;-9.69;68.72
69715;HTU21D;56981;53.532;49.398;2024-02-21T12:49:06;-9.58;68.25
69715;HTU21D;56981;53.532;49.398;2024-02-21T12:51:36;-9.68;68.33
69715;HTU21D;56981;53.532;49.398;2024-02-21T12:54:03;-9.75;68.71
69715;HTU21D;56981;53.532;49.398;2024-02-21T12:56:30;-9.73;68.29
69715;HTU21D;56981;53.532;49.398;2024-02-21T12:58:57;-9.79;68.71
69715;HTU21D;56981;53.532;49.398;2024-02-21T13:01:24;-9.89;68.64
69715;HTU21D;56981;53.532;49.398;2024-02-21T13:03:57;-10.01;68.65
69715;HTU21D;56981;53.532;49.398;2024-02-21T13:06:26;-10.06;68.82
69715;HTU21D;56981;53.532;49.398;2024-02-21T13:08:53;-10.19;69.54
69715;HTU21D;56981;53.532;49.398;2024-02-21T13:11:20;-10.21;69.55
69715;HTU21D;56981;53.532;49.398;2024-02-21T13:13:46;-10.25;69.49
69715;HTU21D;56981;53.532;49.398;2024-02-21T13:16:13;-10.29;69.30
69715;HTU21D;56981;53.532;49.398;2024-02-21T13:18:39;-10.27;69.55
69715;HTU21D;56981;53.532;49.398;2024-02-21T13:21:09;-10.29;69.78
69715;HTU21D;56981;53.532;49.398;2024-02-21T13:23:39;-10.36;70.25
69715;HTU21D;56981;53.532;49.398;2024-02-21T13:26:06;-10.42;69.84
69715;HTU21D;56981;53.532;49.398;2024-02-21T13:28:33;-10.42;70.18
69715;HTU21D;56981;53.532;49.398;2024-02-21T13:31:00;-10.48;69.53
69715;HTU21D;56981;53.532;49.398;2024-02-21T13:33:26;-10.55;68.81
69715;HTU21D;56981;53.532;49.398;2024-02-21T13:35:55;-10.76;69.71
69715;HTU21D;56981;53.532;49.398;2024-02-21T13:38:21;-10.82;69.67
69715;HTU21D;56981;53.532;49.398;2024-02-21T13:40:48;-10.97;70.05
69715;HTU21D;56981;53.532;49.398;2024-02-21T13:43:14;-11.02;70.25
69715;HTU21D;56981;53.532;49.398;2024-02-21T13:45:40;-11.11;69.91
69715;HTU21D;56981;53.532;49.398;2024-02-21T13:48:21;-11.23;70.23
69715;HTU21D;56981;53.532;49.398;2024-02-21T13:50:47;-11.36;70.74
69715;HTU21D;56981;53.532;49.398;2024-02-21T13:53:13;-11.49;70.84
69715;HTU21D;56981;53.532;49.398;2024-02-21T13:55:41;-11.63;71.77
69715;HTU21D;56981;53.532;49.398;2024-02-21T13:58:09;-11.71;71.80
69715;HTU21D;56981;53.532;49.398;2024-02-21T14:00:36;-11.73;71.93
69715;HTU21D;56981;53.532;49.398;2024-02-21T14:03:03;-11.82;71.80
69715;HTU21D;56981;53.532;49.398;2024-02-21T14:05:29;-11.93;72.41
69715;HTU21D;56981;53.532;49.398;2024-02-21T14:07:56;-11.99;72.77
69715;HTU21D;56981;53.532;49.398;2024-02-21T14:10:23;-12.08;72.86
69715;HTU21D;56981;53.532;49.398;2024-02-21T14:12:50;-12.12;73.22
69715;HTU21D;56981;53.532;49.398;2024-02-21T14:15:17;-12.17;73.38
69715;HTU21D;56981;53.532;49.398;2024-02-21T14:17:45;-12.28;73.78
69715;HTU21D;56981;53.532;49.398;2024-02-21T14:20:12;-12.35;74.12
69715;HTU21D;56981;53.532;49.398;2024-02-21T14:22:40;-12.40;74.28
69715;HTU21D;56981;53.532;49.398;2024-02-21T14:25:07;-12.43;74.64
69715;HTU21D;56981;53.532;49.398;2024-02-21T14:27:34;-12.51;74.37
69715;HTU21D;56981;53.532;49.398;2024-02-21T14:30:03;-12.54;74.24
69715;HTU21D;56981;53.532;49.398;2024-02-21T14:32:31;-12.66;74.67
69715;HTU21D;56981;53.532;49.398;2024-02-21T14:35:05;-12.71;74.82
69715;HTU21D;56981;53.532;49.398;2024-02-21T14:37:33;-12.77;74.74
69715;HTU21D;56981;53.532;49.398;2024-02-21T14:39:59;-12.86;74.86
69715;HTU21D;56981;53.532;49.398;2024-02-21T14:42:26;-12.93;74.89
69715;HTU21D;56981;53.532;49.398;2024-02-21T14:44:53;-13.00;75.38
69715;HTU21D;56981;53.532;49.398;2024-02-21T14:47:19;-13.06;75.40
69715;HTU21D;56981;53.532;49.398;2024-02-21T14:49:46;-13.08;75.32
69715;HTU21D;56981;53.532;49.398;2024-02-21T14:52:14;-13.12;75.73
69715;HTU21D;56981;53.532;49.398;2024-02-21T14:54:43;-13.16;75.90
69715;HTU21D;56981;53.532;49.398;2024-02-21T14:57:15;-13.24;76.19
69715;HTU21D;56981;53.532;49.398;2024-02-21T14:59:43;-13.25;76.24
69715;HTU21D;56981;53.532;49.398;2024-02-21T15:02:14;-13.26;76.36